createdAt,value
2024-01-05T00:01:34.298Z,7.50
2024-01-05T00:04:02.005Z,7.57
2024-01-05T00:06:28.893Z,7.68
2024-01-05T00:08:55.496Z,7.83
2024-01-05T00:11:22.779Z,7.91
2024-01-05T00:13:49.493Z,7.79
2024-01-05T00:16:22.470Z,7.76
2024-01-05T00:18:51.671Z,7.51
2024-01-05T00:21:26.344Z,7.60
2024-01-05T00:23:54.394Z,7.73
2024-01-05T00:26:21.277Z,7.71
2024-01-05T00:28:49.450Z,7.70
2024-01-05T00:31:17.116Z,7.92
2024-01-05T00:33:44.923Z,8.10
2024-01-05T00:36:12.197Z,8.25
2024-01-05T00:38:39.789Z,8.36
2024-01-05T00:41:06.325Z,8.46
2024-01-05T00:43:32.828Z,8.49
2024-01-05T00:45:59.356Z,8.50
2024-01-05T00:48:27.520Z,8.58
2024-01-05T00:50:54.152Z,8.64
2024-01-05T00:53:20.637Z,8.71
2024-01-05T00:55:47.130Z,8.75
2024-01-05T00:58:13.707Z,8.80
2024-01-05T01:00:40.282Z,8.83
2024-01-05T01:03:06.923Z,8.80
2024-01-05T01:05:33.649Z,8.71
2024-01-05T01:08:01.365Z,8.71
2024-01-05T01:10:27.850Z,8.47
2024-01-05T01:12:54.463Z,8.50
2024-01-05T01:15:21.382Z,8.40
2024-01-05T01:17:48.094Z,8.28
2024-01-05T01:20:14.937Z,8.16
2024-01-05T01:22:41.458Z,8.07
2024-01-05T01:25:08.572Z,8.06
2024-01-05T01:27:35.548Z,8.20
2024-01-05T01:30:02.419Z,8.24
2024-01-05T01:32:29.694Z,8.12
2024-01-05T01:34:56.504Z,7.96
2024-01-05T01:37:23.038Z,8.01
2024-01-05T01:39:49.540Z,7.83
2024-01-05T01:42:16.230Z,7.83
2024-01-05T01:44:42.842Z,7.93
2024-01-05T01:47:09.502Z,7.89
2024-01-05T01:49:36.645Z,7.92
2024-01-05T01:52:03.471Z,8.09
2024-01-05T01:54:34.330Z,8.11
2024-01-05T01:57:03.546Z,8.10
2024-01-05T01:59:30.322Z,8.18
2024-01-05T02:01:58.716Z,8.04
2024-01-05T02:04:27.178Z,7.93
2024-01-05T02:06:53.932Z,7.89
2024-01-05T02:09:20.521Z,7.87
2024-01-05T02:11:47.029Z,7.84
2024-01-05T02:14:13.591Z,7.76
2024-01-05T02:16:42.362Z,7.71
2024-01-05T02:19:09.389Z,7.72
2024-01-05T02:21:40.293Z,7.63
2024-01-05T02:24:07.094Z,7.83
2024-01-05T02:26:33.835Z,7.96
2024-01-05T02:29:03.855Z,8.02
2024-01-05T02:31:30.696Z,8.23
2024-01-05T02:33:57.282Z,8.29
2024-01-05T02:36:23.931Z,8.34
2024-01-05T02:38:50.445Z,8.53
2024-01-05T02:41:16.960Z,8.62
2024-01-05T02:43:43.429Z,8.70
2024-01-05T02:46:10.419Z,8.72
2024-01-05T02:48:37.084Z,8.80
2024-01-05T02:51:03.761Z,8.75
2024-01-05T02:53:30.173Z,8.83
2024-01-05T02:55:56.697Z,8.76
2024-01-05T02:58:23.165Z,8.67
2024-01-05T03:00:49.821Z,8.73
2024-01-05T03:03:16.479Z,8.74
2024-01-05T03:05:43.115Z,8.67
2024-01-05T03:08:10.263Z,8.72
2024-01-05T03:10:36.724Z,8.71
2024-01-05T03:13:03.914Z,8.73
2024-01-05T03:15:30.495Z,8.71
2024-01-05T03:17:57.055Z,8.75
2024-01-05T03:20:23.619Z,8.74
2024-01-05T03:22:50.116Z,8.74
2024-01-05T03:25:16.810Z,8.82
2024-01-05T03:27:43.306Z,8.84
2024-01-05T03:30:10.258Z,8.86
2024-01-05T03:32:36.839Z,8.86
2024-01-05T03:35:03.416Z,8.88
2024-01-05T03:37:29.897Z,8.76
2024-01-05T03:39:56.367Z,8.52
2024-01-05T03:42:22.915Z,8.17
2024-01-05T03:44:49.320Z,7.93
2024-01-05T03:47:15.771Z,7.81
2024-01-05T03:49:42.406Z,7.82
2024-01-05T03:52:10.767Z,7.69
2024-01-05T03:54:37.346Z,7.80
2024-01-05T03:57:03.919Z,7.77
2024-01-05T03:59:30.384Z,7.83
2024-01-05T04:01:57.034Z,7.76
2024-01-05T04:04:23.552Z,7.28
2024-01-05T04:06:52.343Z,7.12
2024-01-05T04:09:19.025Z,6.97
2024-01-05T04:11:45.610Z,6.76
2024-01-05T04:14:12.159Z,6.67
2024-01-05T04:16:38.693Z,6.58
2024-01-05T04:19:05.304Z,6.49
2024-01-05T04:21:32.061Z,6.47
2024-01-05T04:23:59.354Z,6.21
2024-01-05T04:26:26.457Z,6.22
2024-01-05T04:28:53.021Z,6.13
2024-01-05T04:31:19.821Z,6.18
2024-01-05T04:33:46.498Z,6.00
2024-01-05T04:36:17.096Z,5.91
2024-01-05T04:38:44.080Z,5.76
2024-01-05T04:41:10.902Z,5.65
2024-01-05T04:43:37.362Z,5.59
2024-01-05T04:46:03.997Z,5.57
2024-01-05T04:48:30.901Z,5.57
2024-01-05T04:50:57.672Z,5.49
2024-01-05T04:53:24.174Z,5.52
2024-01-05T04:55:50.761Z,5.42
2024-01-05T04:58:17.275Z,5.36
2024-01-05T05:00:43.844Z,5.35
2024-01-05T05:03:15.298Z,5.34
2024-01-05T05:05:42.101Z,5.35
2024-01-05T05:08:11.664Z,5.35
2024-01-05T05:10:38.740Z,5.35
2024-01-05T05:13:05.361Z,5.34
2024-01-05T05:15:32.050Z,5.37
2024-01-05T05:17:58.617Z,5.43
2024-01-05T05:20:25.195Z,5.45
2024-01-05T05:22:51.680Z,5.58
2024-01-05T05:25:18.230Z,5.62
2024-01-05T05:27:44.798Z,5.58
2024-01-05T05:30:11.756Z,5.59
2024-01-05T05:32:38.449Z,5.67
2024-01-05T05:35:06.346Z,5.69
2024-01-05T05:37:32.848Z,5.63
2024-01-05T05:39:59.601Z,5.64
2024-01-05T05:42:26.080Z,5.66
2024-01-05T05:44:52.625Z,5.68
2024-01-05T05:47:19.136Z,5.70
2024-01-05T05:49:45.705Z,5.69
2024-01-05T05:52:12.274Z,5.62
2024-01-05T05:54:38.779Z,5.60
2024-01-05T05:57:09.142Z,5.64
2024-01-05T05:59:35.906Z,5.63
2024-01-05T06:02:02.351Z,5.68
2024-01-05T06:04:28.888Z,5.87
2024-01-05T06:06:55.832Z,6.13
2024-01-05T06:09:22.572Z,6.38
2024-01-05T06:11:49.023Z,6.48
2024-01-05T06:14:15.535Z,6.62
2024-01-05T06:16:42.063Z,6.52
2024-01-05T06:19:10.642Z,6.14
2024-01-05T06:21:37.440Z,5.92
2024-01-05T06:24:04.083Z,6.28
2024-01-05T06:26:32.247Z,6.47
2024-01-05T06:28:58.767Z,6.62
2024-01-05T06:31:25.887Z,6.69
2024-01-05T06:33:52.558Z,6.77
2024-01-05T06:36:20.457Z,6.81
2024-01-05T06:38:47.037Z,6.77
2024-01-05T06:41:13.543Z,6.57
2024-01-05T06:43:40.069Z,6.37
2024-01-05T06:46:06.613Z,6.58
2024-01-05T06:48:33.392Z,6.70
2024-01-05T06:51:01.074Z,6.73
2024-01-05T06:53:30.023Z,6.78
2024-01-05T06:55:56.619Z,6.85
2024-01-05T06:58:24.984Z,6.92
2024-01-05T07:00:51.853Z,6.60
2024-01-05T07:03:18.634Z,6.64
2024-01-05T07:05:45.699Z,6.72
2024-01-05T07:08:12.423Z,6.82
2024-01-05T07:10:38.773Z,6.89
2024-01-05T07:13:08.057Z,6.91
2024-01-05T07:15:34.798Z,6.97
2024-01-05T07:18:01.509Z,7.04
2024-01-05T07:20:28.204Z,7.10
2024-01-05T07:22:54.640Z,7.07
2024-01-05T07:25:21.097Z,7.05
2024-01-05T07:27:47.543Z,7.07
2024-01-05T07:30:14.425Z,7.05
2024-01-05T07:32:41.027Z,7.11
2024-01-05T07:35:07.925Z,7.18
2024-01-05T07:37:34.536Z,7.18
2024-01-05T07:40:01.308Z,7.12
2024-01-05T07:42:28.858Z,7.13
2024-01-05T07:44:58.542Z,6.97
2024-01-05T07:47:25.568Z,7.06
2024-01-05T07:49:52.271Z,7.10
2024-01-05T07:52:18.775Z,7.15
2024-01-05T07:54:45.430Z,7.17
2024-01-05T07:57:12.198Z,7.15
2024-01-05T07:59:38.706Z,7.17
2024-01-05T08:02:05.232Z,7.14
2024-01-05T08:04:31.829Z,7.13
2024-01-05T08:06:58.461Z,7.14
2024-01-05T08:09:25.105Z,7.10
2024-01-05T08:11:51.576Z,7.15
2024-01-05T08:14:18.496Z,7.21
2024-01-05T08:16:45.058Z,7.29
2024-01-05T08:19:11.785Z,7.36
2024-01-05T08:21:38.748Z,7.39
2024-01-05T08:24:05.822Z,7.40
2024-01-05T08:26:32.383Z,7.42
2024-01-05T08:28:58.883Z,7.42
2024-01-05T08:31:25.498Z,7.52
2024-01-05T08:33:52.364Z,7.57
2024-01-05T08:36:19.327Z,7.53
2024-01-05T08:38:46.375Z,7.60
2024-01-05T08:41:15.517Z,7.64
2024-01-05T08:43:45.250Z,7.66
2024-01-05T08:46:12.232Z,7.70
2024-01-05T08:48:39.834Z,7.64
2024-01-05T08:51:06.501Z,7.78
2024-01-05T08:53:33.029Z,7.88
2024-01-05T08:55:59.555Z,7.94
2024-01-05T08:58:26.044Z,8.07
2024-01-05T09:00:52.643Z,8.03
2024-01-05T09:03:19.140Z,7.98
2024-01-05T09:05:47.446Z,7.93
2024-01-05T09:08:14.045Z,8.00
2024-01-05T09:10:40.429Z,8.16
2024-01-05T09:13:08.419Z,8.18
2024-01-05T09:15:35.703Z,8.15
2024-01-05T09:18:04.081Z,8.04
2024-01-05T09:20:30.739Z,8.14
2024-01-05T09:22:57.145Z,8.33
2024-01-05T09:25:23.739Z,8.40
2024-01-05T09:27:50.188Z,8.34
2024-01-05T09:30:16.863Z,8.35
2024-01-05T09:32:43.442Z,8.40
2024-01-05T09:35:10.221Z,8.43
2024-01-05T09:37:37.364Z,8.59
2024-01-05T09:40:04.366Z,8.69
2024-01-05T09:42:30.969Z,8.86
2024-01-05T09:44:58.298Z,8.98
2024-01-05T09:47:25.277Z,9.08
2024-01-05T09:49:53.004Z,9.11
2024-01-05T09:52:21.694Z,9.16
2024-01-05T09:54:48.487Z,9.02
2024-01-05T09:57:21.504Z,9.14
2024-01-05T09:59:49.185Z,9.26
2024-01-05T10:02:28.070Z,9.32
2024-01-05T10:04:56.108Z,9.31
2024-01-05T10:07:22.633Z,9.34
2024-01-05T10:09:53.770Z,9.34
2024-01-05T10:12:20.324Z,9.39
2024-01-05T10:14:48.000Z,9.44
2024-01-05T10:17:17.042Z,9.46
2024-01-05T10:19:43.931Z,9.39
2024-01-05T10:22:12.140Z,9.51
2024-01-05T10:24:40.097Z,9.62
2024-01-05T10:27:09.033Z,9.72
2024-01-05T10:29:39.927Z,9.63
2024-01-05T10:32:13.524Z,9.74
2024-01-05T10:34:42.209Z,9.75
2024-01-05T10:37:09.507Z,9.80
2024-01-05T10:39:36.610Z,9.88
2024-01-05T10:42:15.997Z,9.91
2024-01-05T10:44:46.319Z,9.93
2024-01-05T10:47:16.304Z,9.95
2024-01-05T10:49:48.131Z,9.85
2024-01-05T10:52:16.273Z,9.90
2024-01-05T10:54:45.780Z,9.80
2024-01-05T10:57:13.807Z,9.80
2024-01-05T10:59:40.408Z,9.89
2024-01-05T11:02:11.695Z,9.86
2024-01-05T11:04:42.149Z,9.88
2024-01-05T11:07:10.447Z,9.79
2024-01-05T11:09:49.260Z,9.75
2024-01-05T11:12:52.580Z,9.79
2024-01-05T11:16:05.389Z,9.76
2024-01-05T11:18:57.921Z,9.64
2024-01-05T11:21:36.440Z,9.77
2024-01-05T11:24:03.816Z,9.90
2024-01-05T11:26:36.538Z,9.86
2024-01-05T11:29:04.202Z,9.93
2024-01-05T11:31:48.984Z,9.95
2024-01-05T11:34:37.865Z,9.79
2024-01-05T11:37:08.180Z,9.74
2024-01-05T11:39:50.151Z,9.87
2024-01-05T11:42:31.461Z,9.85
2024-01-05T11:44:59.801Z,9.87
2024-01-05T11:47:46.595Z,9.90
2024-01-05T11:50:29.920Z,9.79
2024-01-05T11:53:23.885Z,9.85
2024-01-05T11:56:12.049Z,9.96
2024-01-05T11:58:44.433Z,9.87
2024-01-05T12:01:13.710Z,9.92
2024-01-05T12:03:41.508Z,9.82
2024-01-05T12:06:13.776Z,9.87
2024-01-05T12:08:41.626Z,9.86
2024-01-05T12:11:11.252Z,9.95
2024-01-05T12:13:39.070Z,9.91
2024-01-05T12:16:07.444Z,9.96
2024-01-05T12:18:42.899Z,9.97
2024-01-05T12:21:12.616Z,9.95
2024-01-05T12:23:39.372Z,9.98
2024-01-05T12:26:08.018Z,10.13
2024-01-05T12:28:36.828Z,10.01
2024-01-05T12:31:05.819Z,10.05
2024-01-05T12:33:36.057Z,10.17
2024-01-05T12:36:05.756Z,10.21
2024-01-05T12:38:33.075Z,10.14
2024-01-05T12:41:12.105Z,10.26
2024-01-05T12:43:45.574Z,10.29
2024-01-05T12:46:12.397Z,10.32
2024-01-05T12:48:39.426Z,10.49
2024-01-05T12:51:21.067Z,10.50
2024-01-05T12:53:58.451Z,10.59
2024-01-05T12:56:25.127Z,10.68
2024-01-05T12:58:51.678Z,9.93
2024-01-05T13:01:23.125Z,10.13
2024-01-05T13:03:57.513Z,9.84
2024-01-05T13:06:27.188Z,10.03
2024-01-05T13:08:54.107Z,9.98
2024-01-05T13:11:21.932Z,9.96
2024-01-05T13:13:52.581Z,9.90
2024-01-05T13:16:19.997Z,9.96
2024-01-05T13:18:47.212Z,10.05
2024-01-05T13:21:13.992Z,10.18
2024-01-05T13:23:42.077Z,10.27
2024-01-05T13:26:09.097Z,10.00
2024-01-05T13:28:36.949Z,10.04
2024-01-05T13:31:03.985Z,9.98
2024-01-05T13:33:31.172Z,9.92
2024-01-05T13:35:58.046Z,9.98
2024-01-05T13:38:24.603Z,10.04
2024-01-05T13:40:51.104Z,9.87
2024-01-05T13:43:17.698Z,9.80
2024-01-05T13:45:44.273Z,9.74
2024-01-05T13:48:10.964Z,9.83
2024-01-05T13:50:37.593Z,9.91
2024-01-05T13:53:05.198Z,9.88
2024-01-05T13:55:31.898Z,9.98
2024-01-05T13:57:58.463Z,9.95
2024-01-05T14:00:25.160Z,10.04
2024-01-05T14:02:51.676Z,10.01
2024-01-05T14:05:18.133Z,9.76
2024-01-05T14:07:44.597Z,9.86
2024-01-05T14:10:11.044Z,9.80
2024-01-05T14:12:37.750Z,9.88
2024-01-05T14:15:07.129Z,9.79
2024-01-05T14:17:34.346Z,9.89
2024-01-05T14:20:01.082Z,9.90
2024-01-05T14:22:27.640Z,9.63
2024-01-05T14:24:54.070Z,9.79
2024-01-05T14:27:20.649Z,9.82
2024-01-05T14:29:47.206Z,9.93
2024-01-05T14:32:14.228Z,10.03
2024-01-05T14:34:43.535Z,10.09
2024-01-05T14:37:10.501Z,10.05
2024-01-05T14:39:37.417Z,10.02
2024-01-05T14:42:04.321Z,10.11
2024-01-05T14:44:30.849Z,10.10
2024-01-05T14:46:57.636Z,10.00
2024-01-05T14:49:24.485Z,9.83
2024-01-05T14:51:51.389Z,9.86
2024-01-05T14:54:17.966Z,9.93
2024-01-05T14:56:46.287Z,9.91
2024-01-05T14:59:12.921Z,9.98
2024-01-05T15:01:39.825Z,9.88
2024-01-05T15:04:06.760Z,9.90
2024-01-05T15:06:33.589Z,9.92
2024-01-05T15:09:00.302Z,9.93
2024-01-05T15:11:26.839Z,9.38
2024-01-05T15:13:53.372Z,9.44
2024-01-05T15:16:19.926Z,9.59
2024-01-05T15:18:46.587Z,9.61
2024-01-05T15:21:22.746Z,9.72
2024-01-05T15:23:49.252Z,9.54
2024-01-05T15:26:15.683Z,9.48
2024-01-05T15:28:42.166Z,9.53
2024-01-05T15:31:16.389Z,9.38
2024-01-05T15:33:43.207Z,9.46
2024-01-05T15:36:09.804Z,9.44
2024-01-05T15:38:36.296Z,9.15
2024-01-05T15:41:02.842Z,9.01
2024-01-05T15:43:29.384Z,9.08
2024-01-05T15:45:55.864Z,9.27
2024-01-05T15:48:22.511Z,9.08
2024-01-05T15:50:49.075Z,9.28
2024-01-05T15:53:15.606Z,9.42
2024-01-05T15:55:44.694Z,9.29
2024-01-05T15:58:14.620Z,9.32
2024-01-05T16:00:41.289Z,9.26
2024-01-05T16:03:08.083Z,9.37
2024-01-05T16:05:34.975Z,9.46
2024-01-05T16:08:01.512Z,9.34
2024-01-05T16:10:28.441Z,9.42
2024-01-05T16:12:54.963Z,9.01
2024-01-05T16:15:21.446Z,9.08
2024-01-05T16:17:48.009Z,9.18
2024-01-05T16:20:14.448Z,8.81
2024-01-05T16:22:41.100Z,8.91
2024-01-05T16:25:08.032Z,9.07
2024-01-05T16:27:37.216Z,9.20
2024-01-05T16:30:05.913Z,9.25
2024-01-05T16:32:32.579Z,9.32
2024-01-05T16:34:59.076Z,9.41
2024-01-05T16:37:25.604Z,9.45
2024-01-05T16:39:52.192Z,9.33
2024-01-05T16:42:18.726Z,9.20
2024-01-05T16:44:45.184Z,9.29
2024-01-05T16:47:11.638Z,9.13
2024-01-05T16:49:38.227Z,9.24
2024-01-05T16:52:05.255Z,9.30
2024-01-05T16:54:31.862Z,8.84
2024-01-05T16:56:58.285Z,8.95
2024-01-05T16:59:25.817Z,8.84
2024-01-05T17:01:52.312Z,8.93
2024-01-05T17:04:19.250Z,9.05
2024-01-05T17:06:50.225Z,9.13
2024-01-05T17:09:16.927Z,8.90
2024-01-05T17:11:43.742Z,8.77
2024-01-05T17:14:13.223Z,8.89
2024-01-05T17:16:39.791Z,9.02
2024-01-05T17:19:06.324Z,8.88
2024-01-05T17:21:32.911Z,8.84
2024-01-05T17:23:59.459Z,8.92
2024-01-05T17:26:26.995Z,9.00
2024-01-05T17:28:53.698Z,9.05
2024-01-05T17:31:20.337Z,9.14
2024-01-05T17:33:47.117Z,9.18
2024-01-05T17:36:14.515Z,9.22
2024-01-05T17:38:41.368Z,9.25
2024-01-05T17:41:07.931Z,9.27
2024-01-05T17:43:34.333Z,9.29
2024-01-05T17:46:04.950Z,9.30
2024-01-05T17:48:33.306Z,9.29
2024-01-05T17:51:02.069Z,9.21
2024-01-05T17:53:29.566Z,9.20
2024-01-05T17:55:56.080Z,9.26
2024-01-05T17:58:22.729Z,9.27
2024-01-05T18:00:49.752Z,8.92
2024-01-05T18:03:16.497Z,9.04
2024-01-05T18:05:43.208Z,9.11
2024-01-05T18:08:09.766Z,9.08
2024-01-05T18:10:36.340Z,8.95
2024-01-05T18:13:03.891Z,8.92
2024-01-05T18:15:30.415Z,8.92
2024-01-05T18:17:56.943Z,8.95
2024-01-05T18:20:23.443Z,8.91
2024-01-05T18:22:50.111Z,8.87
2024-01-05T18:25:16.660Z,8.89
2024-01-05T18:27:43.193Z,8.87
2024-01-05T18:30:10.020Z,8.81
2024-01-05T18:32:36.683Z,8.78
2024-01-05T18:35:03.481Z,8.80
2024-01-05T18:37:30.119Z,8.65
2024-01-05T18:39:56.646Z,8.71
2024-01-05T18:42:23.191Z,8.71
2024-01-05T18:44:49.715Z,8.77
2024-01-05T18:47:16.660Z,8.76
2024-01-05T18:49:43.272Z,8.49
2024-01-05T18:52:09.920Z,8.20
2024-01-05T18:54:36.479Z,8.32
2024-01-05T18:57:03.271Z,8.23
2024-01-05T18:59:29.885Z,8.34
2024-01-05T19:01:56.326Z,8.13
2024-01-05T19:04:23.051Z,8.15
2024-01-05T19:06:49.773Z,8.27
2024-01-05T19:09:16.539Z,8.35
2024-01-05T19:11:43.340Z,8.42
2024-01-05T19:14:09.947Z,8.43
2024-01-05T19:16:41.381Z,8.25
2024-01-05T19:19:10.952Z,8.16
2024-01-05T19:21:49.794Z,8.27
2024-01-05T19:24:22.375Z,8.02
2024-01-05T19:26:48.818Z,8.17
2024-01-05T19:29:15.404Z,8.11
2024-01-05T19:31:43.055Z,8.03
2024-01-05T19:34:10.330Z,8.08
2024-01-05T19:36:37.891Z,7.62
2024-01-05T19:39:05.407Z,7.69
2024-01-05T19:41:32.008Z,7.59
2024-01-05T19:44:00.235Z,7.49
2024-01-05T19:46:26.701Z,7.66
2024-01-05T19:48:55.576Z,7.53
2024-01-05T19:51:23.482Z,7.58
2024-01-05T19:53:50.101Z,7.18
2024-01-05T19:56:16.707Z,7.23
2024-01-05T19:58:43.175Z,7.39
2024-01-05T20:01:09.912Z,7.45
2024-01-05T20:03:36.596Z,7.34
2024-01-05T20:06:03.222Z,7.19
2024-01-05T20:08:29.822Z,7.28
2024-01-05T20:10:56.351Z,7.24
2024-01-05T20:13:22.887Z,7.49
2024-01-05T20:15:49.809Z,7.66
2024-01-05T20:18:16.584Z,7.76
2024-01-05T20:20:43.220Z,7.88
2024-01-05T20:23:11.132Z,7.74
2024-01-05T20:25:38.782Z,7.91
2024-01-05T20:28:07.486Z,8.00
2024-01-05T20:30:34.098Z,8.09
2024-01-05T20:33:02.306Z,8.18
2024-01-05T20:35:28.780Z,7.86
2024-01-05T20:37:55.324Z,7.93
2024-01-05T20:40:22.216Z,7.98
2024-01-05T20:42:49.161Z,8.06
2024-01-05T20:45:15.984Z,8.13
2024-01-05T20:47:42.779Z,8.15
2024-01-05T20:50:10.639Z,8.10
2024-01-05T20:52:37.299Z,8.17
2024-01-05T20:55:03.973Z,8.25
2024-01-05T20:57:30.685Z,8.08
2024-01-05T20:59:57.123Z,8.16
2024-01-05T21:02:23.648Z,7.76
2024-01-05T21:04:50.298Z,7.85
2024-01-05T21:07:17.890Z,8.00
2024-01-05T21:09:44.704Z,8.07
2024-01-05T21:12:11.406Z,8.16
2024-01-05T21:14:41.015Z,8.17
2024-01-05T21:17:08.229Z,8.06
2024-01-05T21:19:41.471Z,8.14
2024-01-05T21:22:08.463Z,8.20
2024-01-05T21:24:39.898Z,8.26
2024-01-05T21:27:06.484Z,8.35
2024-01-05T21:29:33.105Z,8.42
2024-01-05T21:31:59.612Z,8.44
2024-01-05T21:34:26.165Z,8.48
2024-01-05T21:36:52.675Z,8.51
2024-01-05T21:39:19.331Z,8.23
2024-01-05T21:41:47.784Z,8.27
2024-01-05T21:44:14.878Z,8.37
2024-01-05T21:46:41.477Z,8.45
2024-01-05T21:49:09.805Z,8.49
2024-01-05T21:51:37.212Z,8.50
2024-01-05T21:54:04.780Z,8.52
2024-01-05T21:56:31.898Z,8.53
2024-01-05T21:58:58.654Z,8.52
2024-01-05T22:01:25.078Z,8.54
2024-01-05T22:03:51.793Z,8.56
2024-01-05T22:06:18.876Z,8.59
2024-01-05T22:08:46.335Z,8.60
2024-01-05T22:11:12.848Z,8.65
2024-01-05T22:13:39.228Z,8.64
2024-01-05T22:16:06.264Z,8.61
2024-01-05T22:18:38.126Z,8.66
2024-01-05T22:21:12.445Z,8.67
2024-01-05T22:23:41.583Z,8.59
2024-01-05T22:26:09.152Z,8.60
2024-01-05T22:28:38.500Z,8.64
2024-01-05T22:31:11.069Z,8.65
2024-01-05T22:33:40.196Z,8.46
2024-01-05T22:36:11.543Z,8.56
2024-01-05T22:38:38.890Z,8.53
2024-01-05T22:41:10.065Z,8.52
2024-01-05T22:43:37.802Z,8.59
2024-01-05T22:46:14.984Z,8.53
2024-01-05T22:48:47.166Z,8.55
2024-01-05T22:51:21.780Z,8.59
2024-01-05T22:53:48.625Z,8.60
2024-01-05T22:56:15.169Z,8.62
2024-01-05T22:58:41.633Z,8.61
2024-01-05T23:01:08.266Z,8.46
2024-01-05T23:03:34.906Z,8.47
2024-01-05T23:06:01.624Z,8.53
2024-01-05T23:08:28.272Z,8.56
2024-01-05T23:10:54.652Z,8.46
2024-01-05T23:13:21.181Z,8.24
2024-01-05T23:15:49.193Z,8.38
2024-01-05T23:18:15.972Z,8.51
2024-01-05T23:20:42.594Z,8.40
2024-01-05T23:23:09.183Z,8.49
2024-01-05T23:25:35.659Z,8.53
2024-01-05T23:28:02.218Z,8.59
2024-01-05T23:30:28.764Z,8.66
2024-01-05T23:32:55.462Z,8.47
2024-01-05T23:35:22.135Z,8.52
2024-01-05T23:37:48.626Z,8.39
2024-01-05T23:40:15.608Z,8.40
2024-01-05T23:42:43.022Z,8.48
2024-01-05T23:45:10.214Z,8.48
2024-01-05T23:47:36.758Z,8.48
2024-01-05T23:50:05.536Z,8.38
2024-01-05T23:52:33.439Z,8.19
2024-01-05T23:55:00.284Z,8.22
2024-01-05T23:57:26.918Z,8.37
2024-01-05T23:59:53.460Z,8.39
